Time;durP1;ratioP1;P1;durP2;ratioP2;P2;SDS_P1;SDS_P2;PMS_P1;PMS_P2;Temp;Humidity;BMP_temperature;BMP_pressure;BME280_temperature;BME280_humidity;BME280_pressure;Samples;Min_cycle;Max_cycle;Signal;HPM_P1;HPM_P2
2023/07/13 00:01:49;;;;;;;3.00;1.10;;;18.60;99.90;;;18.40;91.40;97208.09;4987733;28;20034;-89
2023/07/13 00:04:21;;;;;;;2.38;1.20;;;18.50;99.90;;;18.33;86.29;97206.84;4958668;28;20083;-89
2023/07/13 00:06:47;;;;;;;2.37;0.90;;;18.40;99.90;;;18.29;85.34;97200.00;4992508;28;20022;-89
2023/07/13 00:09:15;;;;;;;4.32;0.90;;;18.40;99.90;;;18.03;84.41;97164.50;4979157;28;20315;-88
2023/07/13 00:11:41;;;;;;;2.85;1.10;;;18.30;99.90;;;18.17;87.72;97201.72;5012416;28;20485;-88
2023/07/13 00:14:09;;;;;;;3.92;1.10;;;18.30;99.90;;;18.12;90.19;97191.41;4990757;28;20073;-89
2023/07/13 00:16:37;;;;;;;1.60;0.90;;;18.30;99.90;;;18.06;91.07;97188.28;4978616;28;20036;-89
2023/07/13 00:19:05;;;;;;;1.92;1.42;;;18.20;99.90;;;18.02;92.98;97190.31;4960939;28;20033;-89
2023/07/13 00:21:31;;;;;;;1.80;1.05;;;18.10;99.90;;;17.95;89.92;97189.06;4976596;28;20029;-89
2023/07/13 00:23:57;;;;;;;2.88;0.90;;;18.10;99.90;;;17.84;95.07;97175.59;4994919;28;20030;-89
2023/07/13 00:26:23;;;;;;;4.60;1.25;;;18.00;99.90;;;17.87;94.33;97188.72;4969562;28;21128;-88
2023/07/13 00:28:49;;;;;;;2.15;1.02;;;18.00;99.90;;;17.77;94.25;97179.66;4972455;28;20121;-88
2023/07/13 00:31:15;;;;;;;2.80;1.20;;;17.90;99.90;;;17.76;91.13;97186.78;4957254;28;20053;-90
2023/07/13 00:33:41;;;;;;;3.45;0.95;;;17.90;99.90;;;17.67;93.62;97185.59;4975174;28;20033;-89
2023/07/13 00:36:09;;;;;;;4.55;1.15;;;17.90;99.90;;;17.66;92.01;97189.25;4974442;28;20049;-89
2023/07/13 00:38:36;;;;;;;2.55;1.13;;;17.90;99.90;;;17.51;92.49;97168.94;4962640;28;20068;-89
2023/07/13 00:41:03;;;;;;;2.75;1.00;;;17.80;99.90;;;17.59;92.31;97189.78;4949768;28;20060;-90
2023/07/13 00:43:30;;;;;;;2.45;1.30;;;17.80;99.90;;;17.49;95.10;97186.88;4957293;28;20088;-90
2023/07/13 00:45:55;;;;;;;1.92;0.80;;;17.80;99.90;;;17.48;94.59;97193.13;4980686;28;20084;-89
2023/07/13 00:48:28;;;;;;;4.05;0.98;;;17.80;99.90;;;17.44;97.72;97186.31;4986219;28;20030;-88
2023/07/13 00:50:58;;;;;;;6.97;1.40;;;17.70;99.90;;;17.25;91.79;97171.59;4957662;28;20363;-89
2023/07/13 00:53:26;;;;;;;4.47;1.20;;;17.70;99.90;;;17.37;92.71;97193.88;4972196;28;20056;-89
2023/07/13 00:55:55;;;;;;;4.00;1.25;;;17.70;99.90;;;17.30;91.52;97181.91;4949290;28;20344;-88
2023/07/13 00:58:21;;;;;;;3.30;1.25;;;17.70;99.90;;;17.36;86.01;97192.19;4991562;28;20045;-88
2023/07/13 01:00:48;;;;;;;1.67;0.80;;;17.70;99.90;;;17.31;93.08;97180.97;4991182;28;20393;-89
2023/07/13 01:03:15;;;;;;;4.72;1.13;;;17.70;99.90;;;17.23;90.24;97176.16;4957627;28;20053;-89
2023/07/13 01:05:41;;;;;;;1.05;0.80;;;17.80;99.90;;;17.29;92.58;97199.72;5011314;28;20054;-89
2023/07/13 01:08:08;;;;;;;5.80;1.10;;;17.60;99.90;;;17.35;88.34;97220.66;4976745;28;20120;-88
2023/07/13 01:10:39;;;;;;;3.58;0.98;;;17.70;99.90;;;17.32;90.04;97220.84;5004088;28;20501;-89
2023/07/13 01:13:08;;;;;;;6.25;1.30;;;17.60;99.90;;;17.31;92.99;97212.94;4972505;28;20509;-88
2023/07/13 01:15:43;;;;;;;4.53;1.10;;;17.50;99.90;;;17.21;89.27;97211.84;4977150;28;20508;-91
2023/07/13 01:18:20;;;;;;;2.50;0.90;;;17.50;99.90;;;17.14;89.21;97220.28;4954781;28;20033;-89
2023/07/13 01:20:55;;;;;;;3.88;1.10;;;17.50;99.90;;;17.18;90.32;97218.25;4964192;28;20268;-90
2023/07/13 01:23:22;;;;;;;4.03;0.90;;;17.40;99.90;;;17.18;92.92;97220.91;5024120;28;20029;-90
2023/07/13 01:25:48;;;;;;;2.10;0.90;;;17.50;99.90;;;17.12;92.72;97221.31;4988920;28;20046;-90
2023/07/13 01:28:16;;;;;;;3.67;1.02;;;17.40;99.90;;;17.09;89.66;97221.53;4964119;28;20409;-89
2023/07/13 01:30:45;;;;;;;1.40;0.90;;;17.40;99.90;;;17.08;86.81;97219.81;4992879;28;20113;-89
2023/07/13 01:33:16;;;;;;;5.90;1.40;;;17.40;99.90;;;17.06;85.27;97217.25;4997749;28;20498;-88
2023/07/13 01:35:42;;;;;;;1.92;0.93;;;17.30;99.90;;;17.05;87.55;97220.00;4968940;28;20505;-89
2023/07/13 01:38:09;;;;;;;2.30;1.02;;;17.30;99.90;;;17.05;92.92;97220.88;4967925;28;20407;-89
2023/07/13 01:40:38;;;;;;;1.80;0.98;;;17.20;99.90;;;16.81;90.67;97194.00;4951839;28;20041;-90
2023/07/13 01:43:03;;;;;;;1.50;1.08;;;17.40;99.90;;;16.94;87.70;97228.72;4953451;28;20054;-90
2023/07/13 01:45:29;;;;;;;4.30;1.00;;;17.30;99.90;;;16.91;90.53;97224.44;4961214;28;21402;-88
2023/07/13 01:47:55;;;;;;;5.53;1.23;;;17.20;99.90;;;16.85;88.70;97229.31;4992403;28;20563;-89
2023/07/13 01:50:21;;;;;;;6.35;1.20;;;17.10;99.90;;;16.77;86.78;97232.44;4962324;28;20044;-88
2023/07/13 01:52:47;;;;;;;3.20;1.15;;;17.10;99.90;;;16.69;88.08;97229.41;5012515;28;20409;-88
2023/07/13 01:55:13;;;;;;;2.45;0.95;;;16.90;99.90;;;16.50;92.40;97217.28;4971872;28;20076;-89
2023/07/13 01:57:39;;;;;;;2.33;1.08;;;16.90;99.90;;;16.33;93.69;97175.78;4963387;28;20044;-88
2023/07/13 02:00:08;;;;;;;3.80;1.05;;;16.90;99.90;;;16.55;95.00;97225.00;4960947;28;20045;-89
2023/07/13 02:02:34;;;;;;;3.22;0.90;;;16.80;99.90;;;16.46;96.52;97220.25;4980452;28;20069;-88
2023/07/13 02:05:00;;;;;;;3.50;0.88;;;16.90;99.90;;;16.42;95.74;97230.25;4979873;28;20026;-90
2023/07/13 02:07:25;;;;;;;3.08;0.85;;;16.40;99.90;;;16.14;97.38;97197.38;5000576;28;20111;-89
2023/07/13 02:09:51;;;;;;;1.92;0.82;;;16.70;99.90;;;16.25;97.16;97220.66;4985044;28;20034;-90
2023/07/13 02:12:17;;;;;;;1.60;1.00;;;16.60;99.90;;;16.22;97.14;97227.03;4960015;28;20042;-88
2023/07/13 02:14:43;;;;;;;2.08;1.10;;;16.60;99.90;;;16.18;97.34;97246.78;4974160;28;20076;-89
2023/07/13 02:17:10;;;;;;;3.17;0.90;;;16.50;99.90;;;16.14;96.72;97244.41;4974732;28;20100;-89
2023/07/13 02:19:36;;;;;;;2.00;0.95;;;16.40;99.90;;;16.02;93.63;97219.41;4996707;28;20026;-89
2023/07/13 02:22:02;;;;;;;3.08;1.00;;;16.30;99.90;;;16.12;92.34;97241.84;4942284;28;20042;-88
2023/07/13 02:24:28;;;;;;;2.25;1.13;;;16.50;99.90;;;16.10;93.02;97235.78;4940354;28;20049;-90
2023/07/13 02:26:54;;;;;;;3.97;1.05;;;16.40;99.90;;;16.10;93.50;97251.72;4962939;28;20041;-88
2023/07/13 02:29:20;;;;;;;2.17;0.82;;;16.30;99.90;;;16.07;93.19;97243.94;4957636;28;20029;-89
2023/07/13 02:31:45;;;;;;;2.35;0.93;;;16.40;99.90;;;16.09;92.43;97252.66;4973361;28;20572;-89
2023/07/13 02:34:11;;;;;;;3.00;1.02;;;16.40;99.90;;;16.08;92.01;97247.44;4984884;28;20128;-88
2023/07/13 02:36:37;;;;;;;2.28;0.82;;;16.30;99.90;;;16.00;92.27;97232.81;5013256;28;20536;-89
2023/07/13 02:39:05;;;;;;;1.55;0.88;;;16.30;99.90;;;16.03;92.78;97240.59;5009050;28;20118;-88
2023/07/13 02:41:31;;;;;;;2.35;1.05;;;16.20;99.90;;;16.01;93.47;97242.50;4996501;28;25432;-88
2023/07/13 02:44:03;;;;;;;7.03;1.17;;;16.20;99.90;;;15.94;92.06;97232.34;4982300;28;20701;-88
2023/07/13 02:46:31;;;;;;;2.85;1.10;;;16.30;99.90;;;16.14;90.17;97260.38;5007094;28;20113;-88
2023/07/13 02:48:56;;;;;;;2.35;1.20;;;16.30;99.90;;;16.09;92.93;97258.00;4967457;28;20026;-89
2023/07/13 02:51:22;;;;;;;3.20;1.00;;;16.30;99.90;;;16.08;94.08;97256.28;4989829;28;20044;-89
2023/07/13 02:53:48;;;;;;;2.60;1.10;;;16.30;99.90;;;16.07;95.92;97259.88;4953648;28;20129;-88
2023/07/13 02:56:13;;;;;;;1.63;0.95;;;16.30;99.90;;;16.03;98.11;97261.03;4975783;28;20370;-88
2023/07/13 02:58:39;;;;;;;2.45;1.08;;;16.30;99.90;;;15.98;100.00;97260.47;4951929;28;20041;-88
2023/07/13 03:01:10;;;;;;;3.35;1.35;;;16.20;99.90;;;15.80;100.00;97244.66;4990563;28;23777;-89
2023/07/13 03:03:37;;;;;;;2.60;0.93;;;16.20;99.90;;;15.62;100.00;97222.66;4995998;28;20026;-88
2023/07/13 03:06:07;;;;;;;1.40;1.00;;;16.00;99.90;;;15.81;100.00;97257.03;4967135;28;20725;-88
2023/07/13 03:08:33;;;;;;;2.45;1.17;;;16.10;99.90;;;15.71;100.00;97249.66;5016281;28;20448;-89
2023/07/13 03:11:08;;;;;;;1.40;0.90;;;16.10;99.90;;;15.56;100.00;97232.81;4997153;28;20038;-88
2023/07/13 03:13:34;;;;;;;3.28;1.02;;;16.00;99.90;;;15.58;100.00;97244.22;4965694;28;20215;-89
2023/07/13 03:16:00;;;;;;;2.08;0.95;;;16.00;99.90;;;15.72;100.00;97265.53;4975064;28;20041;-89
2023/07/13 03:18:29;;;;;;;2.03;1.02;;;16.00;99.90;;;15.73;100.00;97261.06;5002952;28;20026;-88
2023/07/13 03:20:55;;;;;;;1.95;1.08;;;16.10;99.90;;;15.87;100.00;97278.88;4962578;28;20042;-88
2023/07/13 03:23:22;;;;;;;1.25;0.90;;;16.00;99.90;;;15.93;100.00;97276.69;4990644;28;20034;-88
2023/07/13 03:25:47;;;;;;;2.35;0.95;;;16.20;99.90;;;15.97;100.00;97278.22;5011381;28;20104;-88
2023/07/13 03:28:13;;;;;;;1.48;1.10;;;16.20;99.90;;;16.01;100.00;97277.09;4996004;28;20550;-88
2023/07/13 03:30:39;;;;;;;1.33;0.90;;;16.20;99.90;;;16.15;100.00;97284.22;4975428;28;20461;-88
2023/07/13 03:33:05;;;;;;;1.15;0.95;;;16.30;99.90;;;16.25;100.00;97292.50;4974176;28;20056;-89
2023/07/13 03:35:32;;;;;;;2.85;1.23;;;16.40;99.90;;;16.37;100.00;97297.06;4980422;28;20043;-88
2023/07/13 03:37:59;;;;;;;1.92;0.93;;;16.50;99.90;;;16.47;100.00;97291.16;4959453;28;20045;-88
2023/07/13 03:40:26;;;;;;;2.65;1.23;;;16.60;99.90;;;16.36;99.49;97265.22;4997030;28;20042;-88
2023/07/13 03:42:52;;;;;;;2.03;0.90;;;16.70;99.90;;;16.29;97.08;97262.06;4959961;28;20885;-88
2023/07/13 03:45:18;;;;;;;1.60;1.10;;;16.80;99.90;;;16.69;96.13;97298.63;4990257;28;20085;-88
2023/07/13 03:47:44;;;;;;;2.35;1.15;;;16.90;99.90;;;16.69;95.29;97287.97;4978743;28;20443;-89
2023/07/13 03:50:10;;;;;;;1.50;0.80;;;16.90;99.90;;;16.78;94.65;97306.91;4973808;28;20114;-89
2023/07/13 03:52:36;;;;;;;1.85;1.00;;;17.00;99.90;;;16.76;94.22;97303.50;4974520;28;20075;-89
2023/07/13 03:55:02;;;;;;;2.55;1.20;;;17.00;99.90;;;16.68;92.23;97283.63;4954907;28;20058;-88
2023/07/13 03:57:28;;;;;;;0.93;0.80;;;17.00;99.90;;;16.81;92.77;97308.50;4985112;28;20064;-88
2023/07/13 03:59:53;;;;;;;2.20;1.15;;;17.00;99.90;;;16.85;92.38;97309.22;5003175;28;20225;-88
2023/07/13 04:02:20;;;;;;;1.38;0.88;;;17.00;99.90;;;16.73;91.66;97286.88;4977983;28;20049;-89
2023/07/13 04:04:46;;;;;;;2.40;1.00;;;17.00;99.90;;;16.85;92.71;97311.88;4958604;28;20037;-89
2023/07/13 04:07:12;;;;;;;4.13;0.90;;;17.00;99.90;;;16.82;97.81;97314.72;4984719;28;20635;-90
2023/07/13 04:09:38;;;;;;;2.15;0.90;;;17.00;99.90;;;16.81;100.00;97305.84;4992149;28;20037;-89
2023/07/13 04:12:04;;;;;;;1.60;1.00;;;17.00;99.90;;;16.78;100.00;97306.06;4960645;28;20026;-89
2023/07/13 04:14:30;;;;;;;2.10;1.00;;;16.90;99.90;;;16.78;100.00;97311.41;4984298;28;20394;-89
2023/07/13 04:16:56;;;;;;;2.40;1.10;;;16.90;99.90;;;16.77;100.00;97315.84;5000248;28;20049;-88
2023/07/13 04:19:22;;;;;;;1.58;1.20;;;16.90;99.90;;;16.77;98.32;97307.00;4969115;28;20042;-89
2023/07/13 04:21:48;;;;;;;2.53;1.20;;;17.00;99.90;;;16.88;97.57;97317.84;4988982;28;20025;-89
2023/07/13 04:24:13;;;;;;;2.72;1.30;;;17.00;99.90;;;16.76;99.05;97284.84;4960207;28;20034;-88
2023/07/13 04:26:39;;;;;;;1.70;1.08;;;17.10;99.90;;;16.98;100.00;97321.66;4956034;28;20357;-89
2023/07/13 04:29:06;;;;;;;2.47;1.17;;;17.20;99.90;;;17.05;98.96;97319.47;4955181;28;20060;-88
2023/07/13 04:31:33;;;;;;;7.70;1.50;;;17.20;99.90;;;17.05;98.18;97318.59;4956986;28;20458;-89
2023/07/13 04:33:58;;;;;;;1.65;0.90;;;17.20;99.90;;;16.94;94.99;97316.59;4954410;28;20038;-89
2023/07/13 04:36:28;;;;;;;3.22;1.08;;;17.20;99.90;;;16.75;90.82;97303.59;4964663;28;20426;-89
2023/07/13 04:38:54;;;;;;;1.85;0.98;;;17.10;99.90;;;16.84;90.13;97329.66;5001050;28;20030;-88
2023/07/13 04:41:21;;;;;;;1.88;1.00;;;17.00;99.90;;;16.60;90.24;97308.09;4957568;28;20072;-89
2023/07/13 04:43:47;;;;;;;0.98;0.90;;;16.90;99.90;;;16.63;90.39;97325.66;4961142;28;20030;-89
2023/07/13 04:46:19;;;;;;;1.98;1.00;;;16.80;99.90;;;16.42;91.57;97302.09;4959389;28;20409;-88
2023/07/13 04:48:45;;;;;;;2.38;1.10;;;16.80;99.90;;;16.52;93.80;97331.66;4963731;28;20452;-88
2023/07/13 04:51:11;;;;;;;1.42;0.90;;;16.70;99.90;;;16.20;93.67;97294.56;5000759;28;20026;-89
2023/07/13 04:53:37;;;;;;;6.15;1.10;;;16.60;99.90;;;16.35;93.79;97324.72;4957941;28;20026;-89
2023/07/13 04:56:04;;;;;;;2.65;1.00;;;16.60;99.90;;;16.37;94.54;97339.63;4982317;28;20325;-88
2023/07/13 04:58:30;;;;;;;2.92;1.10;;;16.50;99.90;;;16.39;95.67;97334.22;5003795;28;20861;-88
2023/07/13 05:01:04;;;;;;;1.92;1.15;;;16.50;99.90;;;16.42;97.41;97336.72;4960506;28;20126;-90
2023/07/13 05:03:31;;;;;;;2.17;0.95;;;16.50;99.90;;;16.31;96.88;97315.19;4955375;28;20678;-88
2023/07/13 05:06:11;;;;;;;1.90;1.30;;;16.50;99.90;;;16.45;95.23;97341.81;4995024;28;20017;-88
2023/07/13 05:08:37;;;;;;;1.67;1.00;;;16.60;99.90;;;16.38;94.53;97309.44;4978711;28;20057;-89
2023/07/13 05:11:04;;;;;;;4.20;1.08;;;16.60;99.90;;;16.54;91.98;97325.28;4959801;28;20103;-89
2023/07/13 05:13:30;;;;;;;4.25;1.05;;;16.70;99.90;;;16.75;92.16;97344.38;4980263;28;20030;-88
2023/07/13 05:16:07;;;;;;;1.23;1.08;;;16.90;99.90;;;16.89;92.91;97348.03;4968220;28;20041;-89
2023/07/13 05:18:33;;;;;;;1.83;1.02;;;17.00;99.90;;;17.02;91.51;97340.13;4957660;28;20083;-88
2023/07/13 05:21:05;;;;;;;3.13;1.30;;;17.10;99.90;;;17.14;89.87;97336.66;4977705;28;20034;-89
2023/07/13 05:23:33;;;;;;;2.28;1.20;;;17.30;99.90;;;17.34;87.97;97346.03;4978677;28;20098;-88
2023/07/13 05:26:00;;;;;;;3.85;1.13;;;17.40;99.90;;;17.39;87.66;97338.59;4972966;28;20022;-89
2023/07/13 05:28:27;;;;;;;2.65;1.40;;;17.50;99.90;;;17.31;87.46;97304.41;5008472;28;20149;-89
2023/07/13 05:30:54;;;;;;;2.42;1.20;;;17.70;99.90;;;17.67;86.67;97337.59;4964742;28;20038;-87
2023/07/13 05:33:20;;;;;;;4.80;1.30;;;17.80;99.90;;;17.68;84.89;97312.66;4959093;28;20070;-87
2023/07/13 05:35:46;;;;;;;3.10;0.93;;;17.90;99.90;;;17.94;82.37;97342.06;4992366;28;20027;-88
2023/07/13 05:38:12;;;;;;;3.72;0.98;;;18.00;99.90;;;18.02;83.71;97344.25;4966881;28;20053;-89
2023/07/13 05:40:37;;;;;;;3.15;1.40;;;18.10;99.90;;;18.07;84.63;97344.75;4971812;28;20034;-89
2023/07/13 05:43:03;;;;;;;1.02;0.85;;;18.10;99.90;;;17.78;83.77;97291.53;4954427;28;20065;-88
2023/07/13 05:45:29;;;;;;;1.50;1.00;;;18.20;99.90;;;17.95;81.96;97319.78;5004487;28;20029;-89
2023/07/13 05:47:55;;;;;;;2.28;1.17;;;18.20;99.90;;;18.06;82.29;97345.72;4986998;28;20413;-89
2023/07/13 05:50:21;;;;;;;1.00;0.90;;;18.10;99.90;;;17.91;83.07;97328.97;4952704;28;20044;-88
2023/07/13 05:52:47;;;;;;;1.70;1.10;;;18.10;99.90;;;17.85;82.46;97326.66;5003997;28;20072;-89
2023/07/13 05:55:13;;;;;;;2.30;1.25;;;18.20;99.90;;;18.06;80.46;97356.41;4964556;28;20167;-89
2023/07/13 05:57:39;;;;;;;2.65;1.20;;;18.20;99.90;;;18.00;80.67;97340.78;4980049;28;20477;-89
2023/07/13 06:00:06;;;;;;;1.58;1.10;;;18.20;99.90;;;18.12;78.63;97353.31;5011943;28;20042;-89
2023/07/13 06:02:31;;;;;;;1.60;1.20;;;18.20;99.90;;;18.21;77.65;97357.16;4967025;28;20030;-88
2023/07/13 06:04:57;;;;;;;3.28;1.45;;;18.30;99.90;;;18.20;79.65;97345.66;4965395;28;20379;-88
2023/07/13 06:07:23;;;;;;;2.75;1.40;;;18.40;99.90;;;18.35;73.14;97335.72;4958891;28;21829;-89
2023/07/13 06:09:48;;;;;;;2.75;1.27;;;18.60;99.90;;;18.87;72.44;97372.13;4952677;28;20041;-89
2023/07/13 06:12:14;;;;;;;2.40;1.20;;;18.90;99.90;;;19.10;69.55;97372.31;4966697;28;20599;-89
2023/07/13 06:14:40;;;;;;;3.33;1.30;;;19.10;99.90;;;19.19;71.15;97368.97;4945744;28;22868;-88
2023/07/13 06:17:06;;;;;;;4.53;1.50;;;19.20;99.90;;;19.31;68.98;97377.06;5007604;28;20042;-89
2023/07/13 06:19:31;;;;;;;2.15;1.20;;;19.30;99.90;;;19.41;71.14;97376.28;4990425;28;20038;-88
2023/07/13 06:21:58;;;;;;;3.88;1.30;;;19.60;99.90;;;19.48;68.64;97374.03;4995791;28;20340;-89
2023/07/13 06:24:24;;;;;;;4.07;1.10;;;19.50;99.90;;;19.44;65.29;97373.41;5004289;28;20041;-90
2023/07/13 06:26:50;;;;;;;3.78;1.48;;;19.60;99.40;;;19.67;66.48;97386.03;5011468;28;20022;-91
2023/07/13 06:29:16;;;;;;;4.22;1.20;;;19.60;99.40;;;19.64;69.65;97396.00;4989122;28;20690;-88
2023/07/13 06:31:41;;;;;;;1.70;1.10;;;19.60;99.90;;;19.51;70.33;97397.03;5009083;28;20018;-88
2023/07/13 06:34:07;;;;;;;2.33;1.33;;;19.60;99.90;;;19.35;68.73;97408.00;5015828;28;20460;-89
2023/07/13 06:36:33;;;;;;;3.60;1.50;;;19.40;99.80;;;19.27;65.64;97384.47;4968748;28;20034;-90
2023/07/13 06:38:59;;;;;;;5.50;1.40;;;19.40;99.20;;;19.53;65.13;97412.00;5001208;28;20033;-89
2023/07/13 06:41:27;;;;;;;4.85;1.40;;;19.60;99.60;;;19.60;61.60;97377.63;4977152;28;20724;-90
2023/07/13 06:43:53;;;;;;;2.75;1.30;;;19.90;99.90;;;20.08;58.03;97417.78;4970261;28;20169;-90
2023/07/13 06:46:21;;;;;;;1.40;1.30;;;20.10;98.90;;;20.31;58.62;97399.09;4977386;28;20029;-90
2023/07/13 06:48:47;;;;;;;3.28;1.10;;;20.40;99.70;;;20.68;57.03;97421.25;4980935;28;20018;-89
2023/07/13 06:51:14;;;;;;;6.32;1.20;;;20.80;98.10;;;20.86;54.89;97415.44;4975553;28;20034;-89
2023/07/13 06:53:39;;;;;;;2.17;1.10;;;20.80;95.60;;;20.55;54.66;97334.75;4977919;28;20068;-89
2023/07/13 06:56:05;;;;;;;3.85;1.20;;;21.00;95.80;;;21.14;54.06;97423.00;5011680;28;20038;-89
2023/07/13 06:58:33;;;;;;;2.53;1.10;;;21.10;95.40;;;21.21;53.08;97419.81;4970158;28;23241;-89
2023/07/13 07:00:59;;;;;;;1.60;1.17;;;21.10;94.80;;;21.00;50.51;97425.06;4995536;28;20042;-89
2023/07/13 07:03:25;;;;;;;2.55;1.23;;;21.10;93.90;;;20.90;50.67;97430.31;4970090;28;20280;-89
2023/07/13 07:05:51;;;;;;;1.90;1.20;;;21.00;93.40;;;20.72;51.86;97428.06;4960081;28;20424;-89
2023/07/13 07:08:17;;;;;;;3.15;1.27;;;20.70;93.80;;;20.72;52.39;97422.72;4991496;28;20029;-88
2023/07/13 07:10:42;;;;;;;2.30;1.27;;;20.70;94.20;;;20.78;50.94;97424.94;4976414;28;20117;-90
2023/07/13 07:13:08;;;;;;;1.75;1.00;;;20.70;93.80;;;20.36;50.51;97356.75;5009663;28;20121;-89
2023/07/13 07:15:35;;;;;;;1.60;1.15;;;20.70;93.40;;;20.91;51.38;97427.50;5010325;28;20049;-88
2023/07/13 07:18:01;;;;;;;1.65;1.00;;;20.80;93.80;;;21.11;51.81;97428.59;4974380;28;20040;-90
2023/07/13 07:20:27;;;;;;;3.35;1.17;;;21.00;93.90;;;21.16;49.58;97426.41;5012429;28;20034;-88
2023/07/13 07:22:53;;;;;;;2.17;1.17;;;21.00;92.60;;;21.21;48.79;97401.94;4980927;28;20092;-89
2023/07/13 07:25:19;;;;;;;2.17;1.10;;;21.20;92.70;;;21.45;46.23;97436.66;4981337;28;20033;-90
2023/07/13 07:27:46;;;;;;;3.55;1.00;;;21.30;90.90;;;21.56;47.97;97434.97;5012439;28;20122;-89
2023/07/13 07:30:12;;;;;;;1.83;0.90;;;21.40;91.20;;;21.67;47.53;97425.03;4980252;28;20057;-89
2023/07/13 07:32:38;;;;;;;1.35;1.10;;;21.50;91.50;;;21.69;46.41;97424.91;4979003;28;20386;-88
2023/07/13 07:35:04;;;;;;;3.83;1.00;;;21.60;91.00;;;21.70;46.60;97405.16;4965366;28;20034;-89
2023/07/13 07:37:30;;;;;;;1.88;1.08;;;21.70;90.60;;;21.89;47.25;97428.63;4983953;28;20979;-90
2023/07/13 07:39:55;;;;;;;2.50;1.05;;;21.80;91.20;;;21.85;48.32;97421.81;5010944;28;20037;-89
2023/07/13 07:42:21;;;;;;;3.03;1.20;;;21.80;91.30;;;21.65;50.88;97364.44;4964727;28;20040;-89
2023/07/13 07:44:47;;;;;;;2.15;1.00;;;21.80;92.80;;;21.92;49.55;97418.50;4999310;28;20069;-89
2023/07/13 07:47:12;;;;;;;1.95;0.90;;;21.90;93.10;;;21.76;46.64;97412.69;4996441;28;20265;-88
2023/07/13 07:49:38;;;;;;;2.63;1.13;;;21.90;90.70;;;21.90;46.30;97435.72;4996046;28;20045;-88
2023/07/13 07:52:04;;;;;;;3.65;1.00;;;21.90;90.10;;;21.87;45.11;97415.34;4994774;28;20041;-89
2023/07/13 07:54:30;;;;;;;2.20;1.02;;;21.90;89.10;;;21.89;45.06;97429.50;4983330;28;20030;-89
2023/07/13 07:56:56;;;;;;;1.92;0.90;;;21.90;88.50;;;21.59;45.12;97368.47;4981112;28;20040;-89
2023/07/13 07:59:22;;;;;;;4.43;1.13;;;22.00;88.90;;;21.95;45.57;97405.78;4987179;28;20123;-89
2023/07/13 08:01:50;;;;;;;4.40;1.40;;;22.00;90.50;;;21.76;47.14;97391.22;5011761;28;20018;-90
2023/07/13 08:04:16;;;;;;;2.15;0.90;;;22.10;89.50;;;21.96;45.00;97440.56;4968832;28;20177;-89
2023/07/13 08:06:42;;;;;;;2.35;1.08;;;22.00;87.70;;;21.99;44.57;97434.97;4965875;28;20440;-89
2023/07/13 08:09:08;;;;;;;2.90;1.10;;;22.00;87.20;;;21.93;43.92;97435.47;4979790;28;20026;-89
2023/07/13 08:11:34;;;;;;;1.98;1.13;;;22.00;86.10;;;22.04;44.33;97434.59;5005853;28;20054;-90
2023/07/13 08:13:59;;;;;;;3.30;1.10;;;22.00;86.40;;;21.51;43.44;97365.56;5008326;28;20362;-90
2023/07/13 08:16:26;;;;;;;4.57;1.38;;;22.00;85.30;;;22.05;45.06;97430.91;4985990;28;20044;-90
2023/07/13 08:18:52;;;;;;;3.53;1.20;;;22.00;88.10;;;21.75;45.60;97370.75;5006765;28;20022;-90
2023/07/13 08:21:19;;;;;;;2.67;1.20;;;22.10;88.70;;;22.24;44.93;97430.22;4982237;28;20384;-88
2023/07/13 08:23:46;;;;;;;3.83;1.17;;;22.20;87.60;;;22.36;46.26;97437.28;4982906;28;20029;-89
2023/07/13 08:26:11;;;;;;;2.88;1.08;;;22.30;89.70;;;22.40;46.78;97427.97;5014809;28;20026;-90
2023/07/13 08:28:37;;;;;;;3.67;1.52;;;22.40;89.70;;;22.53;45.53;97419.72;4989330;28;20625;-89
2023/07/13 08:31:06;;;;;;;2.63;0.90;;;22.50;89.00;;;22.42;45.40;97403.69;4979831;28;20044;-91
2023/07/13 08:33:35;;;;;;;5.10;1.10;;;22.60;88.50;;;22.68;45.35;97439.94;4960733;28;20153;-89
2023/07/13 08:36:01;;;;;;;3.05;1.10;;;22.60;88.60;;;22.76;44.37;97438.41;5014758;28;20614;-89
2023/07/13 08:38:27;;;;;;;1.98;1.00;;;22.60;87.30;;;22.84;43.91;97444.84;4979295;28;20058;-89
2023/07/13 08:40:56;;;;;;;1.95;1.10;;;22.70;86.50;;;22.86;46.62;97433.94;4998411;28;20556;-90
2023/07/13 08:43:36;;;;;;;4.25;1.90;;;22.80;89.60;;;22.68;43.62;97407.69;5011748;28;20037;-89
2023/07/13 08:46:09;;;;;;;3.25;1.20;;;22.80;85.90;;;22.90;44.44;97438.06;5013616;28;20022;-90
2023/07/13 08:48:44;;;;;;;4.00;1.30;;;22.90;85.80;;;22.99;47.17;97447.19;5010243;28;20029;-89
2023/07/13 08:52:04;;;;;;;5.55;1.10;;;23.00;90.00;;;22.97;43.92;97444.63;4982055;28;20042;-88
2023/07/13 08:54:36;;;;;;;4.22;1.42;;;22.90;84.70;;;22.91;42.69;97423.63;4953279;28;20513;-90
2023/07/13 08:57:13;;;;;;;6.35;1.65;;;23.10;84.40;;;23.15;42.67;97454.78;5000524;28;20050;-89
2023/07/13 08:59:38;;;;;;;1.42;0.98;;;23.10;84.10;;;23.10;43.15;97436.38;4992975;28;20406;-88
2023/07/13 09:02:28;;;;;;;2.97;1.40;;;23.20;83.00;;;22.99;43.54;97442.66;4961689;28;20041;-90
2023/07/13 09:04:59;;;;;;;4.88;1.20;;;23.00;85.00;;;23.09;43.10;97444.56;4989238;28;20350;-88
2023/07/13 09:07:33;;;;;;;2.47;1.00;;;23.10;83.50;;;23.22;43.10;97443.38;4978649;28;20029;-89
2023/07/13 09:10:30;;;;;;;2.80;1.10;;;23.20;84.00;;;23.40;42.38;97440.00;4975010;28;20033;-88
2023/07/13 09:13:22;;;;;;;3.75;1.15;;;23.40;83.10;;;23.51;43.85;97444.44;4973322;28;20030;-90
2023/07/13 09:15:49;;;;;;;3.77;1.20;;;23.60;83.60;;;23.52;42.36;97438.09;4993449;28;20297;-90
2023/07/13 09:18:37;;;;;;;2.00;1.10;;;23.60;82.10;;;23.42;42.33;97440.75;4975435;28;20792;-88
2023/07/13 09:21:13;;;;;;;2.95;1.20;;;23.60;81.60;;;23.40;41.91;97426.56;4980265;28;20049;-90
2023/07/13 09:23:39;;;;;;;3.78;1.17;;;23.60;81.20;;;23.53;43.25;97448.72;5003388;28;20041;-89
2023/07/13 09:26:15;;;;;;;2.15;1.10;;;23.60;82.70;;;23.42;43.18;97451.53;4970014;28;20085;-88
2023/07/13 09:28:48;;;;;;;3.38;1.27;;;23.50;82.20;;;23.37;44.74;97449.22;5012714;28;20033;-89
2023/07/13 09:31:39;;;;;;;6.85;1.38;;;23.40;85.00;;;23.33;41.43;97455.00;4984784;28;20056;-90
2023/07/13 09:34:10;;;;;;;1.65;0.88;;;23.50;85.30;;;23.34;42.22;97460.25;4991957;28;20120;-90
2023/07/13 09:36:36;;;;;;;4.23;1.37;;;23.40;81.20;;;23.10;40.91;97400.56;5007976;28;20038;-89
2023/07/13 09:39:07;;;;;;;4.18;1.30;;;23.50;79.80;;;23.55;42.47;97446.72;4976676;28;20102;-90
2023/07/13 09:41:57;;;;;;;2.05;1.15;;;23.60;80.00;;;23.77;40.34;97442.13;4981702;28;20120;-89
2023/07/13 09:44:47;;;;;;;5.50;1.33;;;23.80;78.50;;;24.00;40.34;97450.84;4963144;28;20963;-88
2023/07/13 09:47:29;;;;;;;2.50;1.20;;;24.00;77.40;;;24.12;41.33;97443.47;4966797;28;20026;-89
2023/07/13 09:50:12;;;;;;;4.35;1.15;;;24.10;79.80;;;23.98;42.84;97425.88;4977652;28;20061;-88
2023/07/13 09:52:48;;;;;;;1.98;0.85;;;24.10;82.30;;;24.14;41.34;97441.50;4986759;28;20521;-88
2023/07/13 09:55:31;;;;;;;3.47;1.30;;;24.10;80.30;;;24.13;40.64;97442.47;4975341;28;20704;-89
2023/07/13 09:57:57;;;;;;;2.30;0.80;;;24.10;78.30;;;23.88;41.75;97447.41;4982903;28;20057;-89
2023/07/13 10:00:27;;;;;;;5.22;1.45;;;24.00;79.80;;;23.31;40.58;97395.97;5005910;28;20871;-89
2023/07/13 10:03:20;;;;;;;3.58;1.02;;;23.70;78.20;;;23.46;41.01;97436.78;4976268;28;20050;-88
2023/07/13 10:05:47;;;;;;;;;;;23.50;79.00;;;23.37;41.78;97422.31;5007370;28;20586;-90
2023/07/13 10:08:24;;;;;;;2.70;1.20;;;23.50;79.90;;;23.51;41.09;97417.53;4962798;28;20453;-88
2023/07/13 10:10:57;;;;;;;4.07;1.25;;;23.60;81.20;;;23.78;41.88;97436.59;5007535;28;20490;-88
2023/07/13 10:13:32;;;;;;;1.40;1.00;;;23.80;79.90;;;24.02;40.35;97438.06;4966206;28;20961;-88
2023/07/13 10:15:59;;;;;;;1.92;1.02;;;24.00;79.50;;;24.08;39.19;97442.03;5001254;28;20045;-89
2023/07/13 10:18:26;;;;;;;2.10;1.13;;;24.10;75.90;;;24.10;43.23;97432.84;4996599;28;20041;-89
2023/07/13 10:21:16;;;;;;;5.10;1.30;;;24.10;79.80;;;24.31;42.49;97439.94;4991997;28;20021;-89
2023/07/13 10:23:45;;;;;;;3.40;1.13;;;24.20;80.90;;;24.38;39.87;97433.81;5013858;28;20062;-89